Worthington, MN

1:58 PM CDT on August 27, 2016 (GMT -0500)
Worthington | | Change Station

Elev 1587 ft 43.56 °N, 95.57 °W | Updated 1 second ago

Overcast
Overcast
67.1 °F
Feels Like 67.1 °F
N
4.9
Wind Variable Wind from WSW
Gusts 9.0 mph

Today
High -- | Low -- °F
--% Chance of Precip.
Yesterday
High -- | Low -- °F
Precip. -- in
Pressure 30.02 in
Visibility 10.0 miles
Clouds Few 900 ft
Overcast 1700 ft
Dew Point 63 °F
Humidity 86%
Rainfall 0.36 in
Snow Depth Not available.
6:41 AM 8:05 PM
Waning Crescent, 22% visible
METAR KOTG 271856Z AUTO 21007KT 10SM FEW009 OVC017 19/17 A3002 RMK AO2 SLP166 T01940172
Pressure 30.02 in
Visibility 10.0 miles
Clouds Few 900 ft
Overcast 1700 ft
Dew Point 63 °F
Humidity 86%
Rainfall 0.36 in
Snow Depth Not available.
6:41 AM 8:05 PM
Waning Crescent, 22% visible
METAR KOTG 271856Z AUTO 21007KT 10SM FEW009 OVC017 19/17 A3002 RMK AO2 SLP166 T01940172

10-Day Weather Forecast

Almanac

Astronomy

Aug. 27, 2016 Rise Set
Actual Time
Civil Twilight
Nautical Twilight
Astronomical Twilight
Moon
Length of Visible Light
Length of Day
Tomorrow will be .
, % of the Moon is Illuminated

Today's Extremes

State Highs State Lows

Community

WunderPhotos

Upload Photos

1,935,399 photos uploaded!

WunderBlog® & News

Nearby

Air Quality

  Air Quality AQ Index Pollutant
Not available.

Snow Depth

Station Depth Elevation

Earthquake Activity

City Distance Mag. Time & Date
Minimum magnitude displayed is 2.5.

Coastal Water Temperatures

Place Temperature

Stations

Nearby Weather Stations

Station Location Temp. Windchill Dew Point Humidity Wind Precip. Elev Updated Type
                   

Watches & Warnings

There are currently no watches in effect.